Aviation Digital Data Service (ADDS)

Output produced by METARs form (0614 UTC 24 January 2019)
found at http://aviationweather.gov/metar/data/
 
METAR text: KFFZ 240554Z AUTO 01003KT 10SM CLR 07/M04 A3016 RMK AO2 SLP204 T00721039 10150 20072 58005
Conditions at: KFFZ (MESA/FALCON FLD , AZ, US) observed 0554 UTC 24 January 2019
Temperature: 7.2°C (45°F)
Dewpoint: -3.9°C (25°F) [RH = 45%]
Pressure (altimeter): 30.16 inches Hg (1021.4 mb)
[Sea-level pressure: 1020.4 mb]
Winds: from the N (10 degrees) at 3 MPH (3 knots; 1.5 m/s)
Visibility: 10 or more miles (16+ km)
Ceiling: at least 12,000 feet AGL
Clouds: sky clear below 12,000 feet AGL
Weather: automated observation with no human augmentation;
there may or may not be significant weather present at this time

METAR text: KIWA 240548Z 11005KT 20SM SKC 05/M04 A3017
Conditions at: KIWA (CHANDLER/MESA , AZ, US) observed 0548 UTC 24 January 2019
Temperature: 5.0°C (41°F)
Dewpoint: -4.0°C (25°F) [RH = 52%]
Pressure (altimeter): 30.17 inches Hg (1021.8 mb)
Winds: from the ESE (110 degrees) at 6 MPH (5 knots; 2.6 m/s)
Visibility: 20 miles (32 km)
Ceiling: at least 12,000 feet AGL
Clouds: clear skies
Weather: no significant weather observed at this time

Forecast for: KIWA (CHANDLER/MESA , AZ, US)
Text: KIWA 240538Z 2406/2506 10005KT P6SM SKC
Forecast period: 0600 to 2100 UTC 24 January 2019
Forecast type: FROM: standard forecast or significant change
Winds: from the E (100 degrees) at 6 MPH (5 knots; 2.6 m/s)
Visibility: 6 or more miles 10+ km)
Clouds: clear skies
Weather: no significant weather forecast for this period
Text: FM242100 32006KT P6SM SKC
Forecast period: 2100 UTC 24 January 2019 to 0400 UTC 25 January 2019
Forecast type: FROM: standard forecast or significant change
Winds: from the NW (320 degrees) at 7 MPH (6 knots; 3.1 m/s)
Visibility: 6 or more miles 10+ km)
Clouds: clear skies
Weather: no significant weather forecast for this period
Text: FM250400 08005KT P6SM SKC AMD LTD TO CLD VIS AND WIND TIL 241200
Forecast period: 0400 to 0600 UTC 25 January 2019
Forecast type: FROM: standard forecast or significant change
Winds: from the E (80 degrees) at 6 MPH (5 knots; 2.6 m/s)
Visibility: 6 or more miles 10+ km)
Clouds: clear skies
Weather: no significant weather forecast for this period